Time;durP1;ratioP1;P1;durP2;ratioP2;P2;SDS_P1;SDS_P2;PMS_P1;PMS_P2;Temp;Humidity;BMP_temperature;BMP_pressure;BME280_temperature;BME280_humidity;BME280_pressure;Samples;Min_cycle;Max_cycle;Signal;HPM_P1;HPM_P2
2023/04/07 00:01:00;;;;;;;10.75;5.47;;;9.30;99.90;;;9.33;100.00;100790.72;5190045;28;20053;-82
2023/04/07 00:03:32;;;;;;;12.18;5.30;;;9.40;99.90;;;9.31;100.00;100794.94;5187107;28;20042;-81
2023/04/07 00:06:04;;;;;;;10.35;4.93;;;9.40;99.90;;;9.32;100.00;100798.44;5200498;28;20296;-79
2023/04/07 00:08:36;;;;;;;9.60;5.13;;;9.30;99.90;;;9.33;100.00;100800.22;5193300;28;20045;-80
2023/04/07 00:11:08;;;;;;;10.85;4.80;;;9.30;99.90;;;9.34;100.00;100802.88;5190574;28;20053;-79
2023/04/07 00:13:41;;;;;;;10.57;4.72;;;9.30;99.90;;;9.33;100.00;100789.81;5186713;28;20120;-79
2023/04/07 00:16:14;;;;;;;11.13;4.78;;;9.40;99.90;;;9.34;100.00;100789.88;5189161;28;20103;-80
2023/04/07 00:18:46;;;;;;;11.15;4.88;;;9.30;99.90;;;9.35;100.00;100791.66;5199691;28;20041;-78
2023/04/07 00:21:18;;;;;;;10.65;5.18;;;9.30;99.90;;;9.39;100.00;100795.22;5202493;28;20055;-80
2023/04/07 00:23:51;;;;;;;10.25;4.93;;;9.30;99.90;;;9.39;100.00;100788.34;5186177;28;20042;-80
2023/04/07 00:26:24;;;;;;;9.98;4.75;;;9.40;99.90;;;9.42;100.00;100790.16;5179034;28;20053;-80
2023/04/07 00:28:56;;;;;;;8.75;4.88;;;9.40;99.90;;;9.43;100.00;100781.53;5186087;28;20065;-81
2023/04/07 00:31:30;;;;;;;9.15;4.97;;;9.40;99.90;;;9.44;100.00;100789.41;5187993;28;20109;-81
2023/04/07 00:34:02;;;;;;;13.07;5.55;;;9.40;99.90;;;9.38;100.00;100778.75;5190696;28;20117;-81
2023/04/07 00:36:34;;;;;;;10.43;5.05;;;9.40;99.90;;;9.37;100.00;100783.91;5200640;28;20069;-81
2023/04/07 00:39:06;;;;;;;10.43;5.05;;;9.40;99.90;;;9.42;100.00;100787.56;5196337;28;20487;-81
2023/04/07 00:41:38;;;;;;;10.40;5.50;;;9.40;99.90;;;9.40;100.00;100779.72;5190772;28;20053;-81
2023/04/07 00:44:10;;;;;;;10.43;5.70;;;9.40;99.90;;;9.39;100.00;100779.63;5191204;28;21718;-80
2023/04/07 00:46:43;;;;;;;10.35;5.70;;;9.40;99.90;;;9.39;100.00;100775.34;5187819;28;20443;-79
2023/04/07 00:49:16;;;;;;;10.23;4.63;;;9.40;99.90;;;9.42;100.00;100780.66;5196055;28;20062;-80
2023/04/07 00:51:48;;;;;;;10.07;5.15;;;9.40;99.90;;;9.41;100.00;100771.06;5196526;28;20100;-80
2023/04/07 00:54:21;;;;;;;9.82;5.05;;;9.40;99.90;;;9.41;100.00;100760.66;5189388;28;20050;-80
2023/04/07 00:56:54;;;;;;;10.70;4.88;;;9.40;99.90;;;9.42;100.00;100770.25;5190417;28;20058;-81
2023/04/07 00:59:28;;;;;;;10.30;5.25;;;9.40;99.90;;;9.41;100.00;100768.47;5190214;28;20037;-80
2023/04/07 01:02:09;;;;;;;11.50;5.70;;;9.40;99.90;;;9.38;100.00;100763.13;5189401;28;20049;-80
2023/04/07 01:04:49;;;;;;;11.00;5.57;;;9.40;99.90;;;9.37;100.00;100750.97;5204164;28;20041;-81
2023/04/07 01:07:28;;;;;;;9.68;5.18;;;9.40;99.90;;;9.38;100.00;100760.53;5197468;28;20038;-81
2023/04/07 01:10:18;;;;;;;12.32;6.45;;;9.40;99.90;;;9.36;100.00;100763.91;5212975;28;20099;-81
2023/04/07 01:13:06;;;;;;;11.18;5.30;;;9.40;99.90;;;9.36;100.00;100751.78;5196362;28;20434;-80
2023/04/07 01:15:40;;;;;;;11.13;5.90;;;9.40;99.90;;;9.35;100.00;100759.53;5196996;28;20457;-81
2023/04/07 01:18:22;;;;;;;10.48;5.30;;;9.30;99.90;;;9.35;100.00;100762.16;5207344;28;20053;-81
2023/04/07 01:20:56;;;;;;;;;;;9.40;99.90;;;9.34;100.00;100755.16;5191476;28;20057;-81
2023/04/07 01:23:52;;;;;;;10.63;5.07;;;9.30;99.90;;;9.35;100.00;100762.16;5192255;28;19968;-84
2023/04/07 01:26:29;;;;;;;9.98;4.70;;;9.30;99.90;;;9.34;100.00;100756.06;5187106;28;20049;-80
2023/04/07 01:29:33;;;;;;;9.23;4.82;;;9.30;99.90;;;9.37;100.00;100752.69;5207098;28;20041;-80
2023/04/07 01:32:10;;;;;;;12.07;5.43;;;9.40;99.90;;;9.38;100.00;100763.13;5187160;28;20042;-80
2023/04/07 01:34:42;;;;;;;11.25;5.05;;;9.40;99.90;;;9.38;100.00;100752.72;5205813;28;20504;-81
2023/04/07 01:37:15;;;;;;;9.43;4.78;;;9.40;99.90;;;9.39;100.00;100757.13;5189539;28;20042;-81
2023/04/07 01:39:48;;;;;;;12.70;5.72;;;9.40;99.90;;;9.38;100.00;100759.66;5197530;28;20041;-81
2023/04/07 01:42:21;;;;;;;13.13;5.93;;;9.30;99.90;;;9.37;100.00;100750.97;5199555;28;20045;-82
2023/04/07 01:44:55;;;;;;;12.07;5.15;;;9.40;99.90;;;9.39;100.00;100754.53;5195769;28;20064;-80
2023/04/07 01:47:29;;;;;;;14.35;6.03;;;9.40;99.90;;;9.41;100.00;100754.59;5179597;28;20044;-80
2023/04/07 01:50:04;;;;;;;11.27;5.93;;;9.40;99.90;;;9.41;100.00;100752.88;5186874;28;20407;-80
2023/04/07 01:52:37;;;;;;;12.63;6.22;;;9.40;99.90;;;9.42;100.00;100753.75;5196776;28;20066;-80
2023/04/07 01:55:10;;;;;;;10.80;5.38;;;9.40;99.90;;;9.44;100.00;100752.09;5197651;28;20045;-80
2023/04/07 01:57:49;;;;;;;12.13;5.32;;;9.40;99.90;;;9.46;100.00;100753.94;5198581;28;20309;-81
2023/04/07 02:00:25;;;;;;;8.57;4.18;;;9.40;99.90;;;9.47;100.00;100747.00;5203779;28;20050;-80
2023/04/07 02:03:07;;;;;;;9.27;4.43;;;9.40;99.90;;;9.48;100.00;100747.06;5195300;28;20597;-80
2023/04/07 02:05:40;;;;;;;9.65;4.47;;;9.40;99.90;;;9.49;100.00;100751.44;5187027;28;20042;-80
2023/04/07 02:08:18;;;;;;;8.90;4.15;;;9.40;99.90;;;9.50;100.00;100740.19;5187901;28;20056;-81
2023/04/07 02:10:51;;;;;;;7.93;4.40;;;9.40;99.90;;;9.53;100.00;100747.25;5203105;28;20044;-81
2023/04/07 02:13:24;;;;;;;9.80;4.53;;;9.40;99.90;;;9.55;100.00;100745.59;5208700;28;20041;-80
2023/04/07 02:16:00;;;;;;;8.10;3.88;;;9.50;99.90;;;9.58;100.00;100744.78;5187903;28;20053;-80
2023/04/07 02:18:32;;;;;;;8.63;4.00;;;9.50;99.90;;;9.59;100.00;100746.59;5187097;28;20048;-80
2023/04/07 02:21:05;;;;;;;7.93;3.95;;;9.50;99.90;;;9.61;100.00;100752.75;5184885;28;20051;-80
2023/04/07 02:23:37;;;;;;;7.85;3.88;;;9.50;99.90;;;9.62;100.00;100751.91;5209660;28;20571;-80
2023/04/07 02:26:10;;;;;;;7.65;3.72;;;9.50;99.90;;;9.64;100.00;100758.03;5188641;28;20495;-80
2023/04/07 02:28:42;;;;;;;9.23;4.25;;;9.60;99.90;;;9.66;100.00;100759.00;5193113;28;20456;-78
2023/04/07 02:31:16;;;;;;;7.90;4.32;;;9.60;99.90;;;9.66;100.00;100748.59;5184606;28;20053;-80
2023/04/07 02:33:48;;;;;;;7.22;3.60;;;9.60;99.90;;;9.68;100.00;100753.03;5185763;28;20420;-80
2023/04/07 02:36:20;;;;;;;6.88;3.22;;;9.60;99.90;;;9.68;100.00;100753.03;5189673;28;20033;-79
2023/04/07 02:38:52;;;;;;;7.43;4.03;;;9.60;99.90;;;9.68;100.00;100753.03;5213870;28;20061;-79
2023/04/07 02:41:25;;;;;;;8.15;3.92;;;9.60;99.90;;;9.68;100.00;100749.53;5185159;28;20046;-79
2023/04/07 02:43:57;;;;;;;8.93;4.40;;;9.60;99.90;;;9.68;100.00;100746.94;5192295;28;20048;-79
2023/04/07 02:46:31;;;;;;;10.07;4.35;;;9.60;99.90;;;9.68;100.00;100750.41;5184581;28;20041;-81
2023/04/07 02:49:03;;;;;;;8.85;4.45;;;9.60;99.90;;;9.67;100.00;100753.84;5217727;28;20044;-81
2023/04/07 02:51:36;;;;;;;9.88;4.10;;;9.60;99.90;;;9.69;100.00;100757.41;5185544;28;20046;-80
2023/04/07 02:54:08;;;;;;;9.70;4.22;;;9.60;99.90;;;9.70;100.00;100760.88;5198189;28;20081;-79
2023/04/07 02:56:40;;;;;;;9.75;4.65;;;9.60;99.90;;;9.70;100.00;100758.28;5193178;28;20053;-80
2023/04/07 02:59:12;;;;;;;9.02;4.47;;;9.60;99.90;;;9.71;100.00;100762.66;5195470;28;20050;-81
2023/04/07 03:01:49;;;;;;;9.35;4.55;;;9.60;99.90;;;9.71;100.00;100762.66;5194146;28;20072;-79
2023/04/07 03:04:23;;;;;;;11.50;4.53;;;9.60;99.90;;;9.72;100.00;100756.63;5183759;28;20046;-79
2023/04/07 03:06:56;;;;;;;8.13;4.18;;;9.60;99.90;;;9.72;100.00;100759.25;5193444;28;20049;-80
2023/04/07 03:09:28;;;;;;;10.43;4.82;;;9.70;99.90;;;9.72;100.00;100757.53;5193862;28;20042;-81
2023/04/07 03:12:02;;;;;;;10.50;5.13;;;9.60;99.90;;;9.74;100.00;100765.38;5194724;28;20045;-80
2023/04/07 03:14:38;;;;;;;10.82;4.75;;;9.60;99.90;;;9.73;100.00;100756.69;5186518;28;20125;-79
2023/04/07 03:17:12;;;;;;;11.70;5.32;;;9.70;99.90;;;9.70;100.00;100759.16;5195956;28;20052;-80
2023/04/07 03:19:45;;;;;;;14.20;6.32;;;9.70;99.90;;;9.70;100.00;100753.06;5185040;28;20048;-80
2023/04/07 03:22:18;;;;;;;13.40;6.15;;;9.60;99.90;;;9.73;100.00;100761.91;5195834;28;20072;-81
2023/04/07 03:24:55;;;;;;;15.68;7.00;;;9.60;99.90;;;9.72;100.00;100759.25;5204267;28;20041;-81
2023/04/07 03:27:29;;;;;;;;;;;9.70;99.90;;;9.70;100.00;100760.88;5191891;28;20575;-80
2023/04/07 03:30:02;;;;;;;20.85;8.85;;;9.60;99.90;;;9.67;100.00;100758.19;5194336;28;19925;-80
2023/04/07 03:32:36;;;;;;;22.73;8.82;;;9.60;99.90;;;9.65;100.00;100758.13;5186298;28;20500;-80
2023/04/07 03:35:10;;;;;;;22.27;9.88;;;9.60;99.90;;;9.63;100.00;100754.56;5186333;28;20121;-80
2023/04/07 03:37:42;;;;;;;23.95;9.77;;;9.60;99.90;;;9.61;100.00;100764.03;5195552;28;20030;-79
2023/04/07 03:40:20;;;;;;;21.70;9.57;;;9.60;99.90;;;9.60;100.00;100751.84;5185701;28;20416;-79
2023/04/07 03:42:53;;;;;;;24.40;9.95;;;9.60;99.90;;;9.60;100.00;100763.97;5203549;28;20547;-80
2023/04/07 03:45:25;;;;;;;22.92;9.75;;;9.60;99.90;;;9.61;100.00;100768.34;5201430;28;20056;-81
2023/04/07 03:48:00;;;;;;;23.73;9.95;;;9.60;99.90;;;9.60;100.00;100769.19;5201457;28;20075;-80
2023/04/07 03:50:32;;;;;;;24.77;10.07;;;9.60;99.90;;;9.60;100.00;100769.19;5194661;28;20050;-80
2023/04/07 03:53:20;;;;;;;25.15;10.40;;;9.60;99.90;;;9.60;100.00;100767.47;5202184;28;20046;-80
2023/04/07 03:55:52;;;;;;;25.30;9.25;;;9.60;99.90;;;9.62;100.00;100773.59;5213447;28;20135;-80
2023/04/07 03:58:45;;;;;;;21.92;8.40;;;9.60;99.90;;;9.64;100.00;100771.06;5192462;28;20112;-77
2023/04/07 04:01:23;;;;;;;31.15;11.13;;;9.60;99.90;;;9.61;100.00;100763.16;5189431;28;20132;-80
2023/04/07 04:03:57;;;;;;;24.70;9.85;;;9.60;99.90;;;9.60;100.00;100761.38;5207110;28;20132;-81
2023/04/07 04:06:32;;;;;;;28.40;10.65;;;9.60;99.90;;;9.60;100.00;100763.97;5211096;28;20087;-81
2023/04/07 04:09:13;;;;;;;23.67;9.77;;;9.60;99.90;;;9.60;100.00;100774.41;5202330;28;20442;-80
2023/04/07 04:11:50;;;;;;;26.58;9.77;;;9.60;99.90;;;9.62;100.00;100773.59;5192770;28;20507;-81
2023/04/07 04:14:23;;;;;;;24.58;10.35;;;9.60;99.90;;;9.60;100.00;100775.28;5202929;28;20104;-81
2023/04/07 04:17:00;;;;;;;25.38;9.88;;;9.60;99.90;;;9.60;100.00;100790.00;5196549;28;20435;-80
2023/04/07 04:19:41;;;;;;;24.48;9.93;;;9.60;99.90;;;9.60;100.00;100774.41;5212917;28;20045;-80
2023/04/07 04:22:21;;;;;;;33.58;12.57;;;9.60;99.90;;;9.60;100.00;100782.19;5190485;28;20045;-80
2023/04/07 04:24:58;;;;;;;29.33;9.85;;;9.60;99.90;;;9.58;100.00;100783.84;5198067;28;20045;-80
2023/04/07 04:27:32;;;;;;;28.63;10.30;;;9.60;99.90;;;9.57;100.00;100784.66;5181857;28;20038;-79
2023/04/07 04:30:10;;;;;;;32.00;11.95;;;9.60;99.90;;;9.55;100.00;100782.00;5188441;28;20108;-81
2023/04/07 04:32:49;;;;;;;29.08;11.35;;;9.50;99.90;;;9.52;100.00;100790.59;5187452;28;20038;-79
2023/04/07 04:35:26;;;;;;;30.70;11.85;;;9.50;99.90;;;9.49;100.00;100793.06;5187792;28;20074;-79
2023/04/07 04:38:12;;;;;;;31.80;12.38;;;9.50;99.90;;;9.47;100.00;100789.53;5242059;23;20102;-69
2023/04/07 04:40:50;;;;;;;31.10;11.80;;;9.50;99.90;;;9.44;100.00;100793.72;5184776;28;20097;-70
2023/04/07 04:43:26;;;;;;;30.73;10.73;;;9.40;99.90;;;9.42;100.00;100796.25;5185112;28;20370;-70
2023/04/07 04:46:00;;;;;;;30.50;11.07;;;9.50;99.90;;;9.43;100.00;100797.16;5184917;28;20052;-69
2023/04/07 04:48:36;;;;;;;29.17;10.68;;;9.50;99.90;;;9.44;100.00;100805.00;5178541;28;20065;-69
2023/04/07 04:51:11;;;;;;;24.67;10.60;;;9.50;99.90;;;9.47;100.00;100805.13;5186011;28;20042;-69
2023/04/07 04:53:46;;;;;;;26.90;9.13;;;9.50;99.90;;;9.50;100.00;100809.56;5186182;28;20042;-70
2023/04/07 04:56:20;;;;;;;27.42;10.05;;;9.50;99.90;;;9.51;100.00;100804.41;5185823;28;20040;-69
2023/04/07 04:58:54;;;;;;;29.73;11.52;;;9.50;99.90;;;9.50;100.00;100810.44;5184211;28;20125;-69
2023/04/07 05:01:35;;;;;;;29.58;10.63;;;9.50;99.90;;;9.49;100.00;100811.28;5177128;28;20129;-70
2023/04/07 05:04:12;;;;;;;22.90;8.90;;;9.50;99.90;;;9.53;100.00;100825.31;5184546;28;20422;-69
2023/04/07 05:06:52;;;;;;;26.23;10.43;;;9.50;99.90;;;9.52;100.00;100816.63;5185677;28;20100;-69
2023/04/07 05:09:30;;;;;;;27.15;10.80;;;9.50;99.90;;;9.51;100.00;100824.34;5181741;28;20148;-69
2023/04/07 05:12:04;;;;;;;24.95;10.05;;;9.50;99.90;;;9.51;100.00;100822.63;5183852;28;20519;-70
2023/04/07 05:14:40;;;;;;;28.20;10.88;;;9.50;99.90;;;9.49;100.00;100824.28;5183941;28;20045;-69
2023/04/07 05:17:14;;;;;;;24.45;9.82;;;9.50;99.90;;;9.49;100.00;100832.09;5185063;28;20038;-69
2023/04/07 05:19:46;;;;;;;23.70;10.20;;;9.50;99.90;;;9.50;100.00;100832.97;5183920;28;20045;-69
2023/04/07 05:22:30;;;;;;;24.65;9.48;;;9.50;99.90;;;9.51;100.00;100826.94;5182786;28;20050;-69
2023/04/07 05:25:02;;;;;;;31.40;12.70;;;9.50;99.90;;;9.50;100.00;100828.66;5181215;28;20070;-69
2023/04/07 05:27:35;;;;;;;27.70;10.85;;;9.50;99.90;;;9.50;100.00;100830.38;5182143;28;20187;-69
2023/04/07 05:30:15;;;;;;;26.95;10.32;;;9.50;99.90;;;9.50;100.00;100826.06;5183367;28;20138;-69
2023/04/07 05:32:47;;;;;;;31.25;12.48;;;9.50;99.90;;;9.49;100.00;100839.91;5183489;28;20341;-69
2023/04/07 05:35:28;;;;;;;26.27;10.65;;;9.50;99.90;;;9.46;100.00;100833.72;5183094;28;20046;-69
2023/04/07 05:38:03;;;;;;;27.58;11.77;;;9.40;99.90;;;9.46;100.00;100837.19;5183506;28;20528;-69
2023/04/07 05:40:36;;;;;;;22.88;9.73;;;9.40;99.90;;;9.46;100.00;100834.59;5176610;28;20088;-69
2023/04/07 05:43:09;;;;;;;20.30;8.77;;;9.40;99.90;;;9.46;100.00;100834.59;5183545;28;20073;-69
2023/04/07 05:45:43;;;;;;;21.98;9.07;;;9.40;99.90;;;9.49;100.00;100841.63;5183691;28;20038;-69
2023/04/07 05:48:16;;;;;;;20.83;8.57;;;9.50;99.90;;;9.49;100.00;100841.63;5181479;28;20041;-69
2023/04/07 05:50:52;;;;;;;21.27;8.63;;;9.50;99.90;;;9.49;100.00;100841.63;5183315;28;20511;-69
2023/04/07 05:53:26;;;;;;;22.77;8.55;;;9.50;99.90;;;9.46;100.00;100842.41;5182796;28;20472;-69
2023/04/07 05:55:58;;;;;;;21.08;8.90;;;9.50;99.90;;;9.42;100.00;100840.50;5181966;28;20517;-69
2023/04/07 05:58:45;;;;;;;22.55;8.98;;;9.50;99.90;;;9.36;100.00;100844.56;5182712;28;20044;-69
2023/04/07 06:01:20;;;;;;;23.55;8.85;;;9.40;99.90;;;9.33;100.00;100844.44;5182005;28;20533;-69
2023/04/07 06:03:53;;;;;;;22.98;7.80;;;9.40;99.90;;;9.35;100.00;100848.00;5182182;28;20129;-57
2023/04/07 06:06:29;;;;;;;23.75;8.38;;;9.40;99.90;;;9.34;100.00;100852.31;5181978;28;20046;-58
2023/04/07 06:09:03;;;;;;;20.70;7.57;;;9.40;99.90;;;9.34;100.00;100860.13;5182418;28;20565;-56
2023/04/07 06:11:36;;;;;;;21.95;8.13;;;9.40;99.90;;;9.37;100.00;100857.63;5180346;28;20050;-57
2023/04/07 06:14:09;;;;;;;18.08;7.53;;;9.40;99.90;;;9.36;100.00;100861.06;5181993;28;20363;-57
2023/04/07 06:16:41;;;;;;;15.70;6.63;;;9.40;99.90;;;9.36;100.00;100863.66;5183405;28;20038;-56
2023/04/07 06:19:13;;;;;;;16.65;6.85;;;9.40;99.90;;;9.39;100.00;100863.81;5182005;28;20044;-57
2023/04/07 06:21:45;;;;;;;15.75;7.03;;;9.40;99.90;;;9.39;100.00;100862.88;5184178;28;20049;-56
2023/04/07 06:24:21;;;;;;;16.50;6.38;;;9.40;99.90;;;9.39;100.00;100863.81;5183979;28;20112;-57
2023/04/07 06:26:55;;;;;;;12.77;5.85;;;9.40;99.90;;;9.44;100.00;100869.16;5183341;28;20126;-57
2023/04/07 06:29:27;;;;;;;13.27;5.72;;;9.50;99.90;;;9.45;100.00;100874.47;5181126;28;20637;-57
2023/04/07 06:32:01;;;;;;;14.55;5.78;;;9.50;99.90;;;9.45;100.00;100874.47;5181990;28;20041;-57
2023/04/07 06:34:33;;;;;;;15.30;6.47;;;9.50;99.90;;;9.45;100.00;100881.34;5182402;28;20046;-57
2023/04/07 06:37:05;;;;;;;16.30;6.05;;;9.50;99.90;;;9.44;100.00;100883.06;5182162;28;20042;-57
2023/04/07 06:39:40;;;;;;;15.18;6.28;;;9.50;99.90;;;9.46;100.00;100881.44;5182066;28;20092;-57
2023/04/07 06:42:12;;;;;;;17.00;6.40;;;9.50;99.90;;;9.47;100.00;100883.19;5183754;28;20077;-57
2023/04/07 06:44:54;;;;;;;14.18;6.05;;;9.50;99.90;;;9.44;100.00;100885.66;5182901;28;20049;-57
2023/04/07 06:47:27;;;;;;;14.85;5.93;;;9.50;99.90;;;9.41;100.00;100885.56;5182559;28;20520;-58
2023/04/07 06:49:59;;;;;;;16.27;6.13;;;9.50;99.90;;;9.41;100.00;100890.75;5183594;28;20133;-56
2023/04/07 06:52:31;;;;;;;16.95;6.47;;;9.50;99.90;;;9.42;100.00;100892.53;5183887;28;20045;-56
2023/04/07 06:55:06;;;;;;;15.98;5.75;;;9.40;99.90;;;9.39;100.00;100896.69;5183719;28;20050;-57
2023/04/07 06:57:38;;;;;;;14.43;5.55;;;9.40;99.90;;;9.37;100.00;100894.03;5175958;28;20516;-57
2023/04/07 07:00:11;;;;;;;12.27;5.07;;;9.40;99.90;;;9.37;100.00;100903.56;5183469;28;20048;-57
2023/04/07 07:02:43;;;;;;;13.63;5.43;;;9.40;99.90;;;9.35;100.00;100906.13;5183600;28;20050;-58
2023/04/07 07:05:16;;;;;;;12.27;5.00;;;9.40;99.90;;;9.34;100.00;100904.34;5183169;28;20053;-57
2023/04/07 07:07:48;;;;;;;10.27;3.95;;;9.40;99.90;;;9.32;100.00;100908.56;5183778;28;20120;-56
2023/04/07 07:10:21;;;;;;;13.65;5.43;;;9.40;99.90;;;9.30;100.00;100910.22;5182654;28;20042;-56
2023/04/07 07:12:53;;;;;;;12.13;4.70;;;9.40;99.90;;;9.30;100.00;100910.22;5183442;28;20482;-57
2023/04/07 07:15:25;;;;;;;10.90;4.65;;;9.40;99.90;;;9.29;100.00;100912.78;5183762;28;20478;-56
2023/04/07 07:17:57;;;;;;;9.02;3.58;;;9.40;99.90;;;9.30;100.00;100917.16;5182875;28;20042;-57
2023/04/07 07:20:30;;;;;;;9.98;3.83;;;9.40;99.90;;;9.31;100.00;100922.41;5183151;28;20046;-56
2023/04/07 07:23:02;;;;;;;8.18;3.55;;;9.40;99.90;;;9.31;100.00;100912.00;5183459;28;20038;-58
2023/04/07 07:25:35;;;;;;;9.10;3.55;;;9.40;99.90;;;9.33;100.00;100914.69;5175895;28;20053;-56
2023/04/07 07:28:08;;;;;;;7.63;3.08;;;9.40;99.90;;;9.34;100.00;100932.06;5182858;28;20049;-57
2023/04/07 07:30:41;;;;;;;8.52;3.45;;;9.40;99.90;;;9.32;100.00;100929.38;5183223;28;20041;-56
2023/04/07 07:33:13;;;;;;;7.32;3.00;;;9.40;99.90;;;9.32;100.00;100931.97;5183394;28;20600;-56
2023/04/07 07:35:45;;;;;;;7.28;3.10;;;9.40;99.90;;;9.35;100.00;100934.72;5183223;28;20352;-57
2023/04/07 07:38:17;;;;;;;10.40;3.67;;;9.40;99.90;;;9.35;100.00;100934.72;5182552;28;20043;-57
2023/04/07 07:40:50;;;;;;;7.97;3.00;;;9.40;99.90;;;9.36;100.00;100936.50;5213732;23;20037;-81
2023/04/07 07:43:22;;;;;;;6.20;2.53;;;9.40;99.90;;;9.42;100.00;100941.06;5177696;28;20398;-78
2023/04/07 07:45:54;;;;;;;5.60;2.63;;;9.50;99.90;;;9.46;100.00;100943.88;5185443;28;20049;-79
2023/04/07 07:48:26;;;;;;;5.93;2.50;;;9.50;99.90;;;9.47;100.00;100936.97;5185151;28;20140;-81
2023/04/07 07:50:58;;;;;;;5.80;2.30;;;9.50;99.90;;;9.50;100.00;100944.88;5212603;28;20049;-81
2023/04/07 07:53:31;;;;;;;8.13;3.25;;;9.50;99.90;;;9.53;100.00;100947.63;5184826;28;20046;-81
2023/04/07 07:56:04;;;;;;;10.18;3.13;;;9.50;99.90;;;9.51;100.00;100946.66;5187001;28;20054;-80
2023/04/07 07:58:36;;;;;;;6.43;2.90;;;9.50;99.90;;;9.51;100.00;100944.94;5178957;28;20054;-85
2023/04/07 08:01:08;;;;;;;6.70;2.83;;;9.60;99.90;;;9.52;100.00;100964.06;5186237;28;20092;-83
2023/04/07 08:03:40;;;;;;;9.90;3.53;;;9.60;99.90;;;9.50;100.00;100950.09;5183386;28;20140;-81
2023/04/07 08:06:12;;;;;;;7.05;2.95;;;9.60;99.90;;;9.51;100.00;100957.94;5163271;28;20069;-80
2023/04/07 08:08:45;;;;;;;6.47;2.85;;;9.50;99.90;;;9.56;100.00;100959.88;5176410;28;20058;-81
2023/04/07 08:11:18;;;;;;;5.97;2.60;;;9.60;99.90;;;9.63;100.00;100967.09;5205980;28;20128;-78
2023/04/07 08:13:50;;;;;;;8.65;2.80;;;9.70;99.90;;;10.04;100.00;100967.06;5188599;28;20034;-80
2023/04/07 08:16:23;;;;;;;8.48;2.95;;;10.10;99.90;;;10.13;100.00;100966.53;5186729;28;20046;-82
2023/04/07 08:18:55;;;;;;;6.82;2.78;;;10.20;99.90;;;10.11;100.00;100975.13;5173801;28;20494;-82
2023/04/07 08:21:28;;;;;;;4.82;2.33;;;10.20;99.90;;;10.26;100.00;100978.34;5171431;28;20069;-81
2023/04/07 08:24:00;;;;;;;9.82;3.47;;;10.40;99.90;;;10.40;100.00;100978.88;5172049;28;20060;-81
2023/04/07 08:26:34;;;;;;;6.90;2.65;;;10.50;99.90;;;10.35;100.00;100978.69;5167738;28;20044;-81
2023/04/07 08:29:06;;;;;;;7.05;3.13;;;10.50;99.90;;;10.31;100.00;100984.66;5186533;28;20487;-80
2023/04/07 08:31:38;;;;;;;7.05;2.47;;;10.40;99.90;;;10.29;100.00;100979.34;5182905;28;20447;-82
2023/04/07 08:34:10;;;;;;;5.03;2.42;;;10.40;99.90;;;10.30;100.00;100985.44;5189467;28;20058;-81
2023/04/07 08:36:42;;;;;;;5.47;2.60;;;10.40;99.90;;;10.29;100.00;100988.88;5194152;28;20053;-82
2023/04/07 08:39:14;;;;;;;7.80;2.67;;;10.40;99.90;;;10.29;100.00;100989.78;5188286;28;20412;-80
2023/04/07 08:41:49;;;;;;;7.22;2.92;;;10.30;99.90;;;10.27;100.00;100988.84;5188928;28;20054;-82
2023/04/07 08:44:23;;;;;;;9.32;3.20;;;10.30;99.90;;;10.25;100.00;100989.63;5180400;28;20038;-83
2023/04/07 08:46:57;;;;;;;8.45;3.30;;;10.30;99.90;;;10.22;100.00;100992.06;5179181;28;20484;-80
2023/04/07 08:49:32;;;;;;;7.45;3.03;;;10.30;99.90;;;10.23;100.00;100988.63;5173590;28;20036;-82
2023/04/07 08:52:08;;;;;;;6.82;3.05;;;10.20;99.90;;;10.22;100.00;100997.25;5167012;28;20523;-81
2023/04/07 08:54:40;;;;;;;7.20;2.88;;;10.20;99.90;;;10.20;100.00;100994.59;5171626;28;20041;-83
2023/04/07 08:57:16;;;;;;;10.88;3.95;;;10.20;99.90;;;10.24;100.00;100999.16;5169176;28;20046;-82
2023/04/07 08:59:50;;;;;;;8.35;3.20;;;10.20;99.90;;;10.23;100.00;101001.66;5181698;28;20039;-82
2023/04/07 09:02:23;;;;;;;7.43;3.03;;;10.30;99.90;;;10.26;100.00;101000.09;5175389;28;20051;-82
2023/04/07 09:04:56;;;;;;;7.72;3.47;;;10.30;99.90;;;10.34;100.00;101002.97;5179469;28;20061;-83
2023/04/07 09:07:28;;;;;;;7.65;2.92;;;10.30;99.90;;;10.41;100.00;100997.19;5176482;28;20050;-82
2023/04/07 09:10:00;;;;;;;9.30;3.63;;;10.30;99.90;;;10.42;100.00;101011.97;5169071;28;20049;-82
2023/04/07 09:12:34;;;;;;;9.52;3.60;;;10.40;99.90;;;10.45;100.00;101006.91;5185177;28;20042;-82
2023/04/07 09:15:08;;;;;;;8.88;3.47;;;10.40;99.90;;;10.49;100.00;101011.38;5178891;28;20407;-84
2023/04/07 09:17:40;;;;;;;9.15;3.47;;;10.50;99.90;;;10.52;100.00;101006.31;5188862;28;20041;-83
2023/04/07 09:20:12;;;;;;;7.72;3.05;;;10.40;99.90;;;10.52;100.00;101015.84;5172772;28;20053;-82
2023/04/07 09:22:45;;;;;;;8.30;3.17;;;10.50;99.90;;;10.51;100.00;101019.28;5182378;28;20054;-82
2023/04/07 09:25:21;;;;;;;6.63;2.85;;;10.50;99.90;;;10.56;100.00;101016.03;5189901;28;20046;-83
2023/04/07 09:28:00;;;;;;;9.75;4.03;;;10.50;99.90;;;10.58;100.00;101018.69;5191268;28;20104;-82
2023/04/07 09:30:34;;;;;;;7.82;3.58;;;10.50;99.90;;;10.56;100.00;101016.03;5185669;28;20459;-86
2023/04/07 09:33:06;;;;;;;9.35;3.47;;;10.50;99.90;;;10.53;100.00;101026.31;5203941;28;20038;-82
2023/04/07 09:35:53;;;;;;;8.88;3.80;;;10.50;99.90;;;10.47;100.00;101018.28;5199246;28;20501;-80
2023/04/07 09:38:33;;;;;;;8.75;3.47;;;10.50;99.90;;;10.53;100.00;101030.66;5183517;28;20066;-82
2023/04/07 09:41:07;;;;;;;6.57;2.80;;;10.50;99.90;;;10.55;100.00;101032.47;5175601;28;20050;-81
2023/04/07 09:43:47;;;;;;;8.43;3.10;;;10.50;99.90;;;10.53;100.00;101021.13;5176534;28;20500;-81
2023/04/07 09:46:19;;;;;;;8.40;3.65;;;10.50;99.90;;;10.52;100.00;101029.75;5171029;28;20551;-82
2023/04/07 09:49:03;;;;;;;7.10;3.38;;;10.50;99.90;;;10.53;100.00;101021.13;5187816;28;20049;-82
2023/04/07 09:51:36;;;;;;;9.57;3.78;;;10.50;99.90;;;10.49;100.00;101029.63;5187848;28;20054;-82
2023/04/07 09:54:08;;;;;;;8.85;3.42;;;10.50;99.90;;;10.48;100.00;101026.97;5196482;28;20049;-81
2023/04/07 09:56:40;;;;;;;8.40;3.65;;;10.50;99.90;;;10.47;100.00;101027.81;5188437;28;20042;-82
2023/04/07 09:59:16;;;;;;;9.38;3.42;;;10.50;99.90;;;10.45;100.00;101035.56;5188984;28;20042;-82
2023/04/07 10:01:48;;;;;;;8.77;3.35;;;10.50;99.90;;;10.44;100.00;101031.19;5181260;28;20038;-80
2023/04/07 10:04:21;;;;;;;7.68;2.95;;;10.50;99.90;;;10.47;100.00;101031.28;5198208;28;20508;-82
2023/04/07 10:06:54;;;;;;;9.55;3.88;;;10.50;99.90;;;10.49;100.00;101033.97;5195380;28;20049;-83
2023/04/07 10:09:29;;;;;;;8.35;3.60;;;10.50;99.90;;;10.48;100.00;101030.47;5185902;28;20049;-83
2023/04/07 10:12:00;;;;;;;;;;;10.40;99.90;;;10.49;100.00;101029.63;5196554;28;20415;-82
2023/04/07 10:14:36;;;;;;;9.27;3.28;;;10.50;99.90;;;10.48;100.00;101030.47;5183861;28;19921;-82
2023/04/07 10:17:08;;;;;;;7.47;2.95;;;10.50;99.90;;;10.51;100.00;101035.81;5191428;28;20132;-80
2023/04/07 10:19:40;;;;;;;7.45;3.05;;;10.50;99.90;;;10.57;100.00;101038.66;5191579;28;20041;-83
2023/04/07 10:22:14;;;;;;;7.95;3.35;;;10.50;99.90;;;10.61;100.00;101039.66;5189121;28;20050;-82
2023/04/07 10:24:54;;;;;;;10.50;4.13;;;10.60;99.90;;;10.65;100.00;101041.56;5194497;28;20060;-82
2023/04/07 10:27:32;;;;;;;12.15;4.07;;;10.60;99.90;;;10.62;100.00;101048.34;5185921;28;20062;-83
2023/04/07 10:30:13;;;;;;;13.15;5.00;;;10.60;99.90;;;10.59;100.00;101046.53;5185966;28;20404;-84
2023/04/07 10:32:47;;;;;;;;;;;10.60;99.90;;;10.59;100.00;101051.75;5188510;28;20046;-81
2023/04/07 10:35:20;;;;;;;9.25;3.55;;;10.60;99.90;;;10.67;100.00;101050.31;5186923;28;19944;-82
2023/04/07 10:38:13;;;;;;;9.07;3.88;;;10.70;99.90;;;10.68;100.00;101056.41;5191787;28;20046;-83
2023/04/07 10:40:45;;;;;;;8.25;3.25;;;10.70;99.90;;;10.73;100.00;101057.50;5181384;28;20101;-81
2023/04/07 10:43:37;;;;;;;6.25;3.05;;;10.70;99.90;;;10.79;100.00;101060.34;5187143;28;20568;-83